sensor_id;sensor_type;location;lat;lon;timestamp;P1;durP1;ratioP1;P2;durP2;ratioP2
33644;SDS011;19986;48.190;16.366;2023-08-17T00:00:30;40.22;;;37.70;;
33644;SDS011;19986;48.190;16.366;2023-08-17T00:03:00;41.80;;;39.38;;
33644;SDS011;19986;48.190;16.366;2023-08-17T00:05:27;42.78;;;40.15;;
33644;SDS011;19986;48.190;16.366;2023-08-17T00:07:53;41.40;;;39.10;;
33644;SDS011;19986;48.190;16.366;2023-08-17T00:10:19;40.00;;;37.70;;
33644;SDS011;19986;48.190;16.366;2023-08-17T00:12:45;41.45;;;39.05;;
33644;SDS011;19986;48.190;16.366;2023-08-17T00:15:10;41.95;;;39.55;;
33644;SDS011;19986;48.190;16.366;2023-08-17T00:17:36;40.70;;;38.28;;
33644;SDS011;19986;48.190;16.366;2023-08-17T00:20:02;40.78;;;38.60;;
33644;SDS011;19986;48.190;16.366;2023-08-17T00:22:30;39.95;;;37.58;;
33644;SDS011;19986;48.190;16.366;2023-08-17T00:24:56;41.30;;;39.00;;
33644;SDS011;19986;48.190;16.366;2023-08-17T00:27:22;37.88;;;35.65;;
33644;SDS011;19986;48.190;16.366;2023-08-17T00:29:47;42.97;;;40.38;;
33644;SDS011;19986;48.190;16.366;2023-08-17T00:32:13;42.90;;;39.95;;
33644;SDS011;19986;48.190;16.366;2023-08-17T00:34:39;42.70;;;39.95;;
33644;SDS011;19986;48.190;16.366;2023-08-17T00:37:05;43.40;;;41.00;;
33644;SDS011;19986;48.190;16.366;2023-08-17T00:39:30;42.65;;;40.13;;
33644;SDS011;19986;48.190;16.366;2023-08-17T00:41:56;44.08;;;41.45;;
33644;SDS011;19986;48.190;16.366;2023-08-17T00:44:22;42.58;;;39.85;;
33644;SDS011;19986;48.190;16.366;2023-08-17T00:46:48;42.15;;;39.33;;
33644;SDS011;19986;48.190;16.366;2023-08-17T00:49:14;41.70;;;39.20;;
33644;SDS011;19986;48.190;16.366;2023-08-17T00:51:39;43.65;;;40.90;;
33644;SDS011;19986;48.190;16.366;2023-08-17T00:54:05;45.75;;;43.05;;
33644;SDS011;19986;48.190;16.366;2023-08-17T00:56:32;44.80;;;42.17;;
33644;SDS011;19986;48.190;16.366;2023-08-17T00:58:58;44.38;;;41.75;;
33644;SDS011;19986;48.190;16.366;2023-08-17T01:01:24;46.22;;;43.33;;
33644;SDS011;19986;48.190;16.366;2023-08-17T01:03:50;46.55;;;43.55;;
33644;SDS011;19986;48.190;16.366;2023-08-17T01:06:16;43.25;;;40.47;;
33644;SDS011;19986;48.190;16.366;2023-08-17T01:08:43;45.17;;;42.58;;
33644;SDS011;19986;48.190;16.366;2023-08-17T01:13:53;45.15;;;42.28;;
33644;SDS011;19986;48.190;16.366;2023-08-17T01:16:36;46.33;;;43.22;;
33644;SDS011;19986;48.190;16.366;2023-08-17T01:19:07;45.38;;;42.50;;
33644;SDS011;19986;48.190;16.366;2023-08-17T01:21:44;46.35;;;43.42;;
33644;SDS011;19986;48.190;16.366;2023-08-17T01:24:14;46.75;;;43.78;;
33644;SDS011;19986;48.190;16.366;2023-08-17T01:26:40;45.92;;;43.22;;
33644;SDS011;19986;48.190;16.366;2023-08-17T01:29:06;45.88;;;43.10;;
33644;SDS011;19986;48.190;16.366;2023-08-17T01:34:24;47.08;;;44.10;;
33644;SDS011;19986;48.190;16.366;2023-08-17T01:36:54;44.45;;;41.65;;
33644;SDS011;19986;48.190;16.366;2023-08-17T01:39:24;45.53;;;42.63;;
33644;SDS011;19986;48.190;16.366;2023-08-17T01:41:56;44.45;;;41.53;;
33644;SDS011;19986;48.190;16.366;2023-08-17T01:44:26;46.53;;;43.65;;
33644;SDS011;19986;48.190;16.366;2023-08-17T01:46:53;44.22;;;41.60;;
33644;SDS011;19986;48.190;16.366;2023-08-17T01:49:19;46.28;;;43.28;;
33644;SDS011;19986;48.190;16.366;2023-08-17T01:51:45;43.75;;;40.85;;
33644;SDS011;19986;48.190;16.366;2023-08-17T01:54:12;45.03;;;42.17;;
33644;SDS011;19986;48.190;16.366;2023-08-17T01:56:38;47.35;;;44.50;;
33644;SDS011;19986;48.190;16.366;2023-08-17T01:59:12;46.55;;;43.65;;
33644;SDS011;19986;48.190;16.366;2023-08-17T02:01:39;49.03;;;45.88;;
33644;SDS011;19986;48.190;16.366;2023-08-17T02:04:05;45.67;;;42.67;;
33644;SDS011;19986;48.190;16.366;2023-08-17T02:06:32;45.28;;;42.42;;
33644;SDS011;19986;48.190;16.366;2023-08-17T02:08:58;46.78;;;43.78;;
33644;SDS011;19986;48.190;16.366;2023-08-17T02:11:24;46.28;;;43.58;;
33644;SDS011;19986;48.190;16.366;2023-08-17T02:13:50;44.58;;;42.00;;
33644;SDS011;19986;48.190;16.366;2023-08-17T02:16:15;46.10;;;43.17;;
33644;SDS011;19986;48.190;16.366;2023-08-17T02:18:42;43.35;;;40.85;;
33644;SDS011;19986;48.190;16.366;2023-08-17T02:21:08;43.78;;;41.05;;
33644;SDS011;19986;48.190;16.366;2023-08-17T02:23:35;42.15;;;39.83;;
33644;SDS011;19986;48.190;16.366;2023-08-17T02:26:01;43.97;;;41.15;;
33644;SDS011;19986;48.190;16.366;2023-08-17T02:28:28;43.17;;;40.58;;
33644;SDS011;19986;48.190;16.366;2023-08-17T02:30:55;45.15;;;42.50;;
33644;SDS011;19986;48.190;16.366;2023-08-17T02:33:21;45.05;;;42.08;;
33644;SDS011;19986;48.190;16.366;2023-08-17T02:35:48;44.95;;;42.20;;
33644;SDS011;19986;48.190;16.366;2023-08-17T02:38:14;44.28;;;41.72;;
33644;SDS011;19986;48.190;16.366;2023-08-17T02:40:40;42.67;;;40.05;;
33644;SDS011;19986;48.190;16.366;2023-08-17T02:43:06;44.42;;;41.92;;
33644;SDS011;19986;48.190;16.366;2023-08-17T02:45:33;42.08;;;39.63;;
33644;SDS011;19986;48.190;16.366;2023-08-17T02:48:00;43.40;;;41.00;;
33644;SDS011;19986;48.190;16.366;2023-08-17T02:50:25;44.47;;;41.88;;
33644;SDS011;19986;48.190;16.366;2023-08-17T02:52:52;42.13;;;39.72;;
33644;SDS011;19986;48.190;16.366;2023-08-17T02:55:17;42.00;;;39.70;;
33644;SDS011;19986;48.190;16.366;2023-08-17T02:57:43;43.97;;;41.58;;
33644;SDS011;19986;48.190;16.366;2023-08-17T03:00:09;44.05;;;41.40;;
33644;SDS011;19986;48.190;16.366;2023-08-17T03:02:35;44.28;;;41.75;;
33644;SDS011;19986;48.190;16.366;2023-08-17T03:05:01;43.33;;;40.72;;
33644;SDS011;19986;48.190;16.366;2023-08-17T03:07:28;43.60;;;41.10;;
33644;SDS011;19986;48.190;16.366;2023-08-17T03:09:54;43.72;;;41.22;;
33644;SDS011;19986;48.190;16.366;2023-08-17T03:12:19;42.42;;;39.67;;
33644;SDS011;19986;48.190;16.366;2023-08-17T03:14:45;43.42;;;40.95;;
33644;SDS011;19986;48.190;16.366;2023-08-17T03:17:11;45.88;;;43.30;;
33644;SDS011;19986;48.190;16.366;2023-08-17T03:19:37;43.88;;;41.33;;
33644;SDS011;19986;48.190;16.366;2023-08-17T03:22:03;43.42;;;40.83;;
33644;SDS011;19986;48.190;16.366;2023-08-17T03:24:29;42.53;;;40.08;;
33644;SDS011;19986;48.190;16.366;2023-08-17T03:26:54;43.65;;;40.90;;
33644;SDS011;19986;48.190;16.366;2023-08-17T03:29:20;43.60;;;41.10;;
33644;SDS011;19986;48.190;16.366;2023-08-17T03:31:46;45.53;;;42.45;;
33644;SDS011;19986;48.190;16.366;2023-08-17T03:34:12;44.17;;;41.53;;
33644;SDS011;19986;48.190;16.366;2023-08-17T03:36:38;44.78;;;41.95;;
33644;SDS011;19986;48.190;16.366;2023-08-17T03:39:04;44.90;;;42.20;;
33644;SDS011;19986;48.190;16.366;2023-08-17T03:41:29;44.22;;;41.65;;
33644;SDS011;19986;48.190;16.366;2023-08-17T03:43:55;46.10;;;43.15;;
33644;SDS011;19986;48.190;16.366;2023-08-17T03:46:21;46.05;;;43.25;;
33644;SDS011;19986;48.190;16.366;2023-08-17T03:48:47;45.75;;;43.05;;
33644;SDS011;19986;48.190;16.366;2023-08-17T03:51:13;43.70;;;41.10;;
33644;SDS011;19986;48.190;16.366;2023-08-17T03:53:38;46.45;;;43.45;;
33644;SDS011;19986;48.190;16.366;2023-08-17T03:56:04;46.30;;;43.47;;
33644;SDS011;19986;48.190;16.366;2023-08-17T03:58:30;44.92;;;42.05;;
33644;SDS011;19986;48.190;16.366;2023-08-17T04:00:59;45.50;;;42.85;;
33644;SDS011;19986;48.190;16.366;2023-08-17T04:03:25;47.38;;;44.28;;
33644;SDS011;19986;48.190;16.366;2023-08-17T04:05:51;46.30;;;43.45;;
33644;SDS011;19986;48.190;16.366;2023-08-17T04:08:17;48.90;;;45.75;;
33644;SDS011;19986;48.190;16.366;2023-08-17T04:10:43;49.00;;;45.75;;
33644;SDS011;19986;48.190;16.366;2023-08-17T04:13:08;48.15;;;44.97;;
33644;SDS011;19986;48.190;16.366;2023-08-17T04:15:34;45.45;;;42.35;;
33644;SDS011;19986;48.190;16.366;2023-08-17T04:18:00;44.80;;;42.03;;
33644;SDS011;19986;48.190;16.366;2023-08-17T04:20:26;46.05;;;42.97;;
33644;SDS011;19986;48.190;16.366;2023-08-17T04:22:52;47.60;;;44.65;;
33644;SDS011;19986;48.190;16.366;2023-08-17T04:25:18;44.47;;;41.78;;
33644;SDS011;19986;48.190;16.366;2023-08-17T04:27:43;47.55;;;44.58;;
33644;SDS011;19986;48.190;16.366;2023-08-17T04:30:10;46.25;;;43.42;;
33644;SDS011;19986;48.190;16.366;2023-08-17T04:32:36;46.58;;;43.42;;
33644;SDS011;19986;48.190;16.366;2023-08-17T04:35:03;43.17;;;40.28;;
33644;SDS011;19986;48.190;16.366;2023-08-17T04:37:29;43.17;;;40.47;;
33644;SDS011;19986;48.190;16.366;2023-08-17T04:39:54;42.38;;;39.67;;
33644;SDS011;19986;48.190;16.366;2023-08-17T04:42:20;44.72;;;41.92;;
33644;SDS011;19986;48.190;16.366;2023-08-17T04:44:46;44.20;;;41.20;;
33644;SDS011;19986;48.190;16.366;2023-08-17T04:47:12;45.53;;;42.58;;
33644;SDS011;19986;48.190;16.366;2023-08-17T04:49:38;45.63;;;42.65;;
33644;SDS011;19986;48.190;16.366;2023-08-17T04:52:04;46.85;;;43.85;;
33644;SDS011;19986;48.190;16.366;2023-08-17T04:54:30;44.17;;;41.47;;
33644;SDS011;19986;48.190;16.366;2023-08-17T04:56:56;47.20;;;44.13;;
33644;SDS011;19986;48.190;16.366;2023-08-17T04:59:21;46.78;;;43.58;;
33644;SDS011;19986;48.190;16.366;2023-08-17T05:01:47;47.60;;;44.33;;
33644;SDS011;19986;48.190;16.366;2023-08-17T05:04:13;46.35;;;43.35;;
33644;SDS011;19986;48.190;16.366;2023-08-17T05:06:39;47.13;;;44.33;;
33644;SDS011;19986;48.190;16.366;2023-08-17T05:09:05;46.92;;;43.85;;
33644;SDS011;19986;48.190;16.366;2023-08-17T05:11:31;46.45;;;43.63;;
33644;SDS011;19986;48.190;16.366;2023-08-17T05:13:57;46.50;;;43.70;;
33644;SDS011;19986;48.190;16.366;2023-08-17T05:16:23;50.08;;;46.90;;
33644;SDS011;19986;48.190;16.366;2023-08-17T05:18:49;46.30;;;43.30;;
33644;SDS011;19986;48.190;16.366;2023-08-17T05:21:14;47.25;;;44.20;;
33644;SDS011;19986;48.190;16.366;2023-08-17T05:23:40;47.30;;;44.28;;
33644;SDS011;19986;48.190;16.366;2023-08-17T05:26:06;48.42;;;45.15;;
33644;SDS011;19986;48.190;16.366;2023-08-17T05:28:33;49.85;;;46.38;;
33644;SDS011;19986;48.190;16.366;2023-08-17T05:31:05;47.40;;;44.17;;
33644;SDS011;19986;48.190;16.366;2023-08-17T05:33:31;49.53;;;46.53;;
33644;SDS011;19986;48.190;16.366;2023-08-17T05:35:57;48.38;;;45.10;;
33644;SDS011;19986;48.190;16.366;2023-08-17T05:38:23;47.42;;;44.22;;
33644;SDS011;19986;48.190;16.366;2023-08-17T05:40:54;48.28;;;45.17;;
33644;SDS011;19986;48.190;16.366;2023-08-17T05:43:21;45.72;;;42.58;;
33644;SDS011;19986;48.190;16.366;2023-08-17T05:45:47;50.03;;;46.72;;
33644;SDS011;19986;48.190;16.366;2023-08-17T05:48:13;50.25;;;46.55;;
33644;SDS011;19986;48.190;16.366;2023-08-17T05:50:42;49.60;;;46.33;;
33644;SDS011;19986;48.190;16.366;2023-08-17T05:53:08;46.80;;;43.55;;
33644;SDS011;19986;48.190;16.366;2023-08-17T05:55:34;53.03;;;48.83;;
33644;SDS011;19986;48.190;16.366;2023-08-17T05:58:00;50.30;;;47.03;;
33644;SDS011;19986;48.190;16.366;2023-08-17T06:00:25;50.00;;;46.25;;
33644;SDS011;19986;48.190;16.366;2023-08-17T06:02:51;49.58;;;46.30;;
33644;SDS011;19986;48.190;16.366;2023-08-17T06:05:17;49.15;;;45.55;;
33644;SDS011;19986;48.190;16.366;2023-08-17T06:07:43;48.30;;;45.10;;
33644;SDS011;19986;48.190;16.366;2023-08-17T06:10:09;49.65;;;46.40;;
33644;SDS011;19986;48.190;16.366;2023-08-17T06:12:35;54.38;;;50.25;;
33644;SDS011;19986;48.190;16.366;2023-08-17T06:15:02;45.53;;;42.42;;
33644;SDS011;19986;48.190;16.366;2023-08-17T06:17:28;44.85;;;42.05;;
33644;SDS011;19986;48.190;16.366;2023-08-17T06:19:54;44.00;;;41.25;;
33644;SDS011;19986;48.190;16.366;2023-08-17T06:22:20;42.65;;;39.95;;
33644;SDS011;19986;48.190;16.366;2023-08-17T06:24:46;41.42;;;38.72;;
33644;SDS011;19986;48.190;16.366;2023-08-17T06:27:14;43.53;;;40.47;;
33644;SDS011;19986;48.190;16.366;2023-08-17T06:29:41;40.05;;;37.45;;
33644;SDS011;19986;48.190;16.366;2023-08-17T06:32:07;44.30;;;41.63;;
33644;SDS011;19986;48.190;16.366;2023-08-17T06:34:33;43.03;;;40.42;;
33644;SDS011;19986;48.190;16.366;2023-08-17T06:36:59;42.88;;;39.83;;
33644;SDS011;19986;48.190;16.366;2023-08-17T06:39:27;41.08;;;38.78;;
33644;SDS011;19986;48.190;16.366;2023-08-17T06:41:53;41.13;;;38.47;;
33644;SDS011;19986;48.190;16.366;2023-08-17T06:44:19;41.63;;;39.00;;
33644;SDS011;19986;48.190;16.366;2023-08-17T06:46:46;41.53;;;38.92;;
33644;SDS011;19986;48.190;16.366;2023-08-17T06:49:12;40.55;;;38.20;;
33644;SDS011;19986;48.190;16.366;2023-08-17T06:51:38;41.47;;;38.97;;
33644;SDS011;19986;48.190;16.366;2023-08-17T06:54:04;39.55;;;36.90;;
33644;SDS011;19986;48.190;16.366;2023-08-17T06:56:32;41.00;;;38.22;;
33644;SDS011;19986;48.190;16.366;2023-08-17T06:58:58;39.38;;;36.65;;
33644;SDS011;19986;48.190;16.366;2023-08-17T07:01:24;39.75;;;37.38;;
33644;SDS011;19986;48.190;16.366;2023-08-17T07:03:50;40.33;;;37.88;;
33644;SDS011;19986;48.190;16.366;2023-08-17T07:06:15;43.00;;;39.83;;
33644;SDS011;19986;48.190;16.366;2023-08-17T07:08:41;40.80;;;38.33;;
33644;SDS011;19986;48.190;16.366;2023-08-17T07:11:07;39.72;;;37.47;;
33644;SDS011;19986;48.190;16.366;2023-08-17T07:13:33;39.63;;;37.20;;
33644;SDS011;19986;48.190;16.366;2023-08-17T07:15:59;41.25;;;38.55;;
33644;SDS011;19986;48.190;16.366;2023-08-17T07:18:25;39.28;;;36.80;;
33644;SDS011;19986;48.190;16.366;2023-08-17T07:20:51;40.75;;;38.05;;
33644;SDS011;19986;48.190;16.366;2023-08-17T07:23:17;39.55;;;36.95;;
33644;SDS011;19986;48.190;16.366;2023-08-17T07:25:42;39.67;;;37.17;;
33644;SDS011;19986;48.190;16.366;2023-08-17T07:28:09;40.55;;;38.05;;
33644;SDS011;19986;48.190;16.366;2023-08-17T07:30:35;38.40;;;36.20;;
33644;SDS011;19986;48.190;16.366;2023-08-17T07:33:01;38.65;;;36.45;;
33644;SDS011;19986;48.190;16.366;2023-08-17T07:35:26;38.95;;;36.65;;
33644;SDS011;19986;48.190;16.366;2023-08-17T07:37:52;39.45;;;37.05;;
33644;SDS011;19986;48.190;16.366;2023-08-17T07:40:18;40.00;;;37.70;;
33644;SDS011;19986;48.190;16.366;2023-08-17T07:42:45;38.13;;;35.90;;
33644;SDS011;19986;48.190;16.366;2023-08-17T07:45:11;38.17;;;36.08;;
33644;SDS011;19986;48.190;16.366;2023-08-17T07:47:37;40.20;;;37.70;;
33644;SDS011;19986;48.190;16.366;2023-08-17T07:50:05;40.03;;;37.47;;
33644;SDS011;19986;48.190;16.366;2023-08-17T07:52:32;41.05;;;38.63;;
33644;SDS011;19986;48.190;16.366;2023-08-17T07:54:57;40.25;;;37.85;;
33644;SDS011;19986;48.190;16.366;2023-08-17T07:57:24;41.63;;;38.83;;
33644;SDS011;19986;48.190;16.366;2023-08-17T07:59:49;40.20;;;37.53;;
33644;SDS011;19986;48.190;16.366;2023-08-17T08:02:16;43.38;;;40.60;;
33644;SDS011;19986;48.190;16.366;2023-08-17T08:04:44;40.67;;;38.38;;
33644;SDS011;19986;48.190;16.366;2023-08-17T08:07:10;42.05;;;39.40;;
33644;SDS011;19986;48.190;16.366;2023-08-17T08:09:36;41.55;;;38.65;;
33644;SDS011;19986;48.190;16.366;2023-08-17T08:12:02;41.72;;;38.92;;
33644;SDS011;19986;48.190;16.366;2023-08-17T08:14:28;40.92;;;38.22;;
33644;SDS011;19986;48.190;16.366;2023-08-17T08:16:54;42.53;;;40.03;;
33644;SDS011;19986;48.190;16.366;2023-08-17T08:19:20;42.08;;;39.33;;
33644;SDS011;19986;48.190;16.366;2023-08-17T08:21:47;43.22;;;40.15;;
33644;SDS011;19986;48.190;16.366;2023-08-17T08:24:12;42.65;;;39.72;;
33644;SDS011;19986;48.190;16.366;2023-08-17T08:26:38;40.78;;;38.03;;
33644;SDS011;19986;48.190;16.366;2023-08-17T08:29:04;42.30;;;39.50;;
33644;SDS011;19986;48.190;16.366;2023-08-17T08:31:30;42.42;;;39.55;;
33644;SDS011;19986;48.190;16.366;2023-08-17T08:33:57;41.08;;;38.58;;
33644;SDS011;19986;48.190;16.366;2023-08-17T08:36:24;40.78;;;38.05;;
33644;SDS011;19986;48.190;16.366;2023-08-17T08:38:50;40.20;;;37.47;;
33644;SDS011;19986;48.190;16.366;2023-08-17T08:41:17;41.97;;;39.38;;
33644;SDS011;19986;48.190;16.366;2023-08-17T08:43:43;42.85;;;40.30;;
33644;SDS011;19986;48.190;16.366;2023-08-17T08:46:10;42.65;;;39.90;;
33644;SDS011;19986;48.190;16.366;2023-08-17T08:48:38;45.45;;;41.95;;
33644;SDS011;19986;48.190;16.366;2023-08-17T08:51:07;46.65;;;43.15;;
33644;SDS011;19986;48.190;16.366;2023-08-17T08:53:38;44.47;;;41.63;;
33644;SDS011;19986;48.190;16.366;2023-08-17T08:56:13;43.17;;;40.05;;
33644;SDS011;19986;48.190;16.366;2023-08-17T08:58:44;44.17;;;41.10;;
33644;SDS011;19986;48.190;16.366;2023-08-17T09:01:11;44.10;;;41.28;;
33644;SDS011;19986;48.190;16.366;2023-08-17T09:03:38;43.97;;;41.08;;
33644;SDS011;19986;48.190;16.366;2023-08-17T09:06:05;47.08;;;43.40;;
33644;SDS011;19986;48.190;16.366;2023-08-17T09:08:31;45.90;;;42.70;;
33644;SDS011;19986;48.190;16.366;2023-08-17T09:10:57;45.60;;;42.60;;
33644;SDS011;19986;48.190;16.366;2023-08-17T09:13:22;44.67;;;41.67;;
33644;SDS011;19986;48.190;16.366;2023-08-17T09:15:48;47.15;;;43.85;;
33644;SDS011;19986;48.190;16.366;2023-08-17T09:18:14;47.28;;;43.92;;
33644;SDS011;19986;48.190;16.366;2023-08-17T09:23:11;41.63;;;38.10;;
33644;SDS011;19986;48.190;16.366;2023-08-17T09:25:45;43.60;;;40.70;;
33644;SDS011;19986;48.190;16.366;2023-08-17T09:28:14;44.92;;;41.45;;
33644;SDS011;19986;48.190;16.366;2023-08-17T09:30:55;44.13;;;40.90;;
33644;SDS011;19986;48.190;16.366;2023-08-17T09:33:22;39.22;;;35.97;;
33644;SDS011;19986;48.190;16.366;2023-08-17T09:35:50;37.78;;;35.25;;
33644;SDS011;19986;48.190;16.366;2023-08-17T09:38:16;36.53;;;34.22;;
33644;SDS011;19986;48.190;16.366;2023-08-17T09:40:43;38.58;;;35.80;;
33644;SDS011;19986;48.190;16.366;2023-08-17T09:43:10;41.08;;;38.22;;
33644;SDS011;19986;48.190;16.366;2023-08-17T09:45:40;38.90;;;36.42;;
33644;SDS011;19986;48.190;16.366;2023-08-17T09:48:07;43.70;;;40.80;;
33644;SDS011;19986;48.190;16.366;2023-08-17T09:50:34;43.50;;;39.65;;
33644;SDS011;19986;48.190;16.366;2023-08-17T09:53:04;43.47;;;40.70;;
33644;SDS011;19986;48.190;16.366;2023-08-17T09:55:30;43.55;;;40.78;;
33644;SDS011;19986;48.190;16.366;2023-08-17T09:57:59;44.45;;;41.47;;
33644;SDS011;19986;48.190;16.366;2023-08-17T10:00:25;43.35;;;40.50;;
33644;SDS011;19986;48.190;16.366;2023-08-17T10:02:52;48.13;;;44.78;;
33644;SDS011;19986;48.190;16.366;2023-08-17T10:05:19;43.00;;;40.17;;
33644;SDS011;19986;48.190;16.366;2023-08-17T10:07:51;41.63;;;38.92;;
33644;SDS011;19986;48.190;16.366;2023-08-17T10:10:24;41.13;;;38.42;;
33644;SDS011;19986;48.190;16.366;2023-08-17T10:12:56;38.53;;;35.67;;
33644;SDS011;19986;48.190;16.366;2023-08-17T10:15:51;39.65;;;37.20;;
33644;SDS011;19986;48.190;16.366;2023-08-17T10:21:25;37.75;;;35.40;;
33644;SDS011;19986;48.190;16.366;2023-08-17T10:23:54;36.92;;;34.72;;
33644;SDS011;19986;48.190;16.366;2023-08-17T10:26:22;38.17;;;35.95;;
33644;SDS011;19986;48.190;16.366;2023-08-17T10:28:48;37.63;;;35.13;;
33644;SDS011;19986;48.190;16.366;2023-08-17T10:31:16;36.70;;;34.63;;
33644;SDS011;19986;48.190;16.366;2023-08-17T10:33:43;38.08;;;35.88;;
33644;SDS011;19986;48.190;16.366;2023-08-17T10:36:12;35.53;;;33.42;;
33644;SDS011;19986;48.190;16.366;2023-08-17T10:38:40;37.05;;;34.85;;
33644;SDS011;19986;48.190;16.366;2023-08-17T10:41:10;39.83;;;37.40;;
33644;SDS011;19986;48.190;16.366;2023-08-17T10:44:11;37.10;;;34.97;;
33644;SDS011;19986;48.190;16.366;2023-08-17T10:46:37;35.08;;;33.05;;
33644;SDS011;19986;48.190;16.366;2023-08-17T10:49:06;35.67;;;33.58;;
33644;SDS011;19986;48.190;16.366;2023-08-17T10:52:05;36.22;;;33.97;;
33644;SDS011;19986;48.190;16.366;2023-08-17T10:54:36;36.10;;;34.00;;
33644;SDS011;19986;48.190;16.366;2023-08-17T11:02:39;38.10;;;35.75;;
33644;SDS011;19986;48.190;16.366;2023-08-17T11:05:05;35.88;;;33.75;;
33644;SDS011;19986;48.190;16.366;2023-08-17T11:07:41;36.13;;;33.78;;
33644;SDS011;19986;48.190;16.366;2023-08-17T11:10:27;35.88;;;33.88;;
33644;SDS011;19986;48.190;16.366;2023-08-17T11:12:54;36.38;;;34.22;;
33644;SDS011;19986;48.190;16.366;2023-08-17T11:15:36;35.67;;;33.50;;
33644;SDS011;19986;48.190;16.366;2023-08-17T11:18:05;37.58;;;35.08;;
33644;SDS011;19986;48.190;16.366;2023-08-17T11:20:32;33.65;;;31.55;;
33644;SDS011;19986;48.190;16.366;2023-08-17T11:22:58;35.65;;;33.38;;
33644;SDS011;19986;48.190;16.366;2023-08-17T11:25:27;33.53;;;31.40;;
33644;SDS011;19986;48.190;16.366;2023-08-17T11:27:56;33.15;;;31.13;;
33644;SDS011;19986;48.190;16.366;2023-08-17T11:30:22;35.78;;;33.38;;
33644;SDS011;19986;48.190;16.366;2023-08-17T11:32:50;33.65;;;31.90;;
33644;SDS011;19986;48.190;16.366;2023-08-17T11:35:16;34.13;;;32.20;;
33644;SDS011;19986;48.190;16.366;2023-08-17T11:37:43;35.35;;;33.45;;
33644;SDS011;19986;48.190;16.366;2023-08-17T11:40:10;35.03;;;32.95;;
33644;SDS011;19986;48.190;16.366;2023-08-17T11:42:36;33.47;;;31.80;;
33644;SDS011;19986;48.190;16.366;2023-08-17T11:45:03;33.90;;;31.88;;
33644;SDS011;19986;48.190;16.366;2023-08-17T11:47:30;34.30;;;32.45;;
33644;SDS011;19986;48.190;16.366;2023-08-17T11:50:00;33.95;;;32.17;;
33644;SDS011;19986;48.190;16.366;2023-08-17T11:52:28;32.78;;;30.85;;
33644;SDS011;19986;48.190;16.366;2023-08-17T11:54:56;34.00;;;32.10;;
33644;SDS011;19986;48.190;16.366;2023-08-17T11:57:22;33.47;;;31.67;;
33644;SDS011;19986;48.190;16.366;2023-08-17T11:59:48;33.35;;;31.45;;
33644;SDS011;19986;48.190;16.366;2023-08-17T12:02:14;34.08;;;32.08;;
33644;SDS011;19986;48.190;16.366;2023-08-17T12:04:40;33.22;;;31.42;;
33644;SDS011;19986;48.190;16.366;2023-08-17T12:07:06;31.73;;;30.00;;
33644;SDS011;19986;48.190;16.366;2023-08-17T12:09:32;33.47;;;31.40;;
33644;SDS011;19986;48.190;16.366;2023-08-17T12:11:59;34.30;;;32.47;;
33644;SDS011;19986;48.190;16.366;2023-08-17T12:14:26;34.63;;;32.80;;
33644;SDS011;19986;48.190;16.366;2023-08-17T12:16:54;35.85;;;33.63;;
33644;SDS011;19986;48.190;16.366;2023-08-17T12:19:20;32.05;;;30.13;;
33644;SDS011;19986;48.190;16.366;2023-08-17T12:21:47;33.60;;;31.05;;
33644;SDS011;19986;48.190;16.366;2023-08-17T12:24:14;35.42;;;33.50;;
33644;SDS011;19986;48.190;16.366;2023-08-17T12:26:56;35.67;;;33.10;;
33644;SDS011;19986;48.190;16.366;2023-08-17T12:29:24;35.40;;;33.45;;
33644;SDS011;19986;48.190;16.366;2023-08-17T12:31:51;32.92;;;31.00;;
33644;SDS011;19986;48.190;16.366;2023-08-17T12:34:17;34.75;;;32.78;;
33644;SDS011;19986;48.190;16.366;2023-08-17T12:36:43;34.05;;;31.95;;
33644;SDS011;19986;48.190;16.366;2023-08-17T12:39:09;35.03;;;32.90;;
33644;SDS011;19986;48.190;16.366;2023-08-17T12:41:35;35.08;;;32.88;;
33644;SDS011;19986;48.190;16.366;2023-08-17T12:44:01;33.92;;;31.83;;
33644;SDS011;19986;48.190;16.366;2023-08-17T12:46:27;33.90;;;31.95;;
33644;SDS011;19986;48.190;16.366;2023-08-17T12:48:53;32.33;;;30.27;;
33644;SDS011;19986;48.190;16.366;2023-08-17T12:51:19;33.90;;;32.03;;
33644;SDS011;19986;48.190;16.366;2023-08-17T12:53:45;34.25;;;32.03;;
33644;SDS011;19986;48.190;16.366;2023-08-17T12:56:10;33.78;;;31.73;;
33644;SDS011;19986;48.190;16.366;2023-08-17T12:58:36;35.28;;;33.25;;
33644;SDS011;19986;48.190;16.366;2023-08-17T13:01:02;34.67;;;32.60;;
33644;SDS011;19986;48.190;16.366;2023-08-17T13:03:28;36.13;;;33.67;;
33644;SDS011;19986;48.190;16.366;2023-08-17T13:05:54;34.60;;;32.60;;
33644;SDS011;19986;48.190;16.366;2023-08-17T13:08:20;32.97;;;31.23;;
33644;SDS011;19986;48.190;16.366;2023-08-17T13:10:46;34.28;;;32.30;;
33644;SDS011;19986;48.190;16.366;2023-08-17T13:13:11;33.53;;;31.20;;
33644;SDS011;19986;48.190;16.366;2023-08-17T13:15:37;35.53;;;33.13;;
33644;SDS011;19986;48.190;16.366;2023-08-17T13:18:03;34.38;;;31.90;;
33644;SDS011;19986;48.190;16.366;2023-08-17T13:20:29;35.67;;;33.45;;
33644;SDS011;19986;48.190;16.366;2023-08-17T13:22:55;34.63;;;32.50;;
33644;SDS011;19986;48.190;16.366;2023-08-17T13:25:21;36.22;;;33.83;;
33644;SDS011;19986;48.190;16.366;2023-08-17T13:27:47;36.58;;;34.08;;
33644;SDS011;19986;48.190;16.366;2023-08-17T13:30:12;36.08;;;33.83;;
33644;SDS011;19986;48.190;16.366;2023-08-17T13:32:38;33.80;;;31.83;;
33644;SDS011;19986;48.190;16.366;2023-08-17T13:35:05;35.97;;;33.63;;
33644;SDS011;19986;48.190;16.366;2023-08-17T13:37:31;34.95;;;32.95;;
33644;SDS011;19986;48.190;16.366;2023-08-17T13:39:57;36.38;;;34.15;;
33644;SDS011;19986;48.190;16.366;2023-08-17T13:42:23;35.08;;;32.95;;
33644;SDS011;19986;48.190;16.366;2023-08-17T13:44:49;34.75;;;32.40;;
33644;SDS011;19986;48.190;16.366;2023-08-17T13:47:15;34.33;;;32.17;;
33644;SDS011;19986;48.190;16.366;2023-08-17T13:49:41;34.15;;;32.10;;
33644;SDS011;19986;48.190;16.366;2023-08-17T13:52:07;34.42;;;32.35;;
33644;SDS011;19986;48.190;16.366;2023-08-17T13:54:33;34.10;;;32.10;;
33644;SDS011;19986;48.190;16.366;2023-08-17T13:56:59;32.70;;;30.80;;
33644;SDS011;19986;48.190;16.366;2023-08-17T13:59:25;34.53;;;32.15;;
33644;SDS011;19986;48.190;16.366;2023-08-17T14:01:51;35.10;;;32.88;;
33644;SDS011;19986;48.190;16.366;2023-08-17T14:04:16;33.88;;;31.88;;
33644;SDS011;19986;48.190;16.366;2023-08-17T14:06:43;34.40;;;32.03;;
33644;SDS011;19986;48.190;16.366;2023-08-17T14:09:09;33.22;;;31.25;;
33644;SDS011;19986;48.190;16.366;2023-08-17T14:11:35;33.78;;;31.50;;
33644;SDS011;19986;48.190;16.366;2023-08-17T14:14:01;35.88;;;33.67;;
33644;SDS011;19986;48.190;16.366;2023-08-17T14:16:26;36.42;;;34.28;;
33644;SDS011;19986;48.190;16.366;2023-08-17T14:18:53;34.70;;;32.63;;
33644;SDS011;19986;48.190;16.366;2023-08-17T14:21:19;36.17;;;33.80;;
33644;SDS011;19986;48.190;16.366;2023-08-17T14:23:45;33.88;;;31.92;;